createdAt,value
2023-05-14T00:01:15.459Z,4.50
2023-05-14T00:03:42.363Z,4.50
2023-05-14T00:06:10.697Z,5.10
2023-05-14T00:08:37.501Z,5.40
2023-05-14T00:11:04.558Z,4.93
2023-05-14T00:13:31.222Z,4.70
2023-05-14T00:15:57.846Z,4.30
2023-05-14T00:18:24.666Z,4.55
2023-05-14T00:20:54.783Z,4.57
2023-05-14T00:23:22.373Z,4.88
2023-05-14T00:25:49.409Z,4.18
2023-05-14T00:28:16.814Z,4.63
2023-05-14T00:30:44.698Z,4.85
2023-05-14T00:33:11.559Z,4.60
2023-05-14T00:35:38.279Z,4.20
2023-05-14T00:38:04.901Z,4.10
2023-05-14T00:40:31.899Z,4.18
2023-05-14T00:42:58.501Z,4.75
2023-05-14T00:45:26.010Z,4.97
2023-05-14T00:47:54.084Z,4.40
2023-05-14T00:50:21.594Z,4.72
2023-05-14T00:52:49.274Z,4.20
2023-05-14T00:55:16.711Z,4.90
2023-05-14T00:57:43.892Z,3.92
2023-05-14T01:00:11.134Z,4.18
2023-05-14T01:02:38.106Z,3.80
2023-05-14T01:05:05.239Z,4.05
2023-05-14T01:08:05.424Z,4.63
2023-05-14T01:10:42.380Z,4.65
2023-05-14T01:13:54.319Z,4.72
2023-05-14T01:16:23.340Z,4.13
2023-05-14T01:18:52.009Z,4.32
2023-05-14T01:21:38.798Z,4.32
2023-05-14T01:24:09.166Z,4.43
2023-05-14T01:26:36.638Z,4.18
2023-05-14T01:29:22.572Z,4.07
2023-05-14T01:31:51.462Z,4.22
2023-05-14T01:34:22.728Z,4.07
2023-05-14T01:36:51.396Z,4.20
2023-05-14T01:39:19.284Z,4.25
2023-05-14T01:41:46.763Z,4.40
2023-05-14T01:44:14.124Z,3.92
2023-05-14T01:46:40.911Z,4.40
2023-05-14T01:49:10.889Z,4.30
2023-05-14T01:51:37.913Z,4.13
2023-05-14T01:54:04.615Z,3.88
2023-05-14T01:56:31.234Z,4.07
2023-05-14T01:58:58.096Z,4.43
2023-05-14T02:01:26.131Z,4.45
2023-05-14T02:03:53.016Z,4.40
2023-05-14T02:06:19.697Z,4.13
2023-05-14T02:08:46.300Z,4.13
2023-05-14T02:11:12.868Z,3.88
2023-05-14T02:13:39.875Z,4.78
2023-05-14T02:16:06.887Z,4.13
2023-05-14T02:18:33.585Z,4.78
2023-05-14T02:21:00.681Z,4.22
2023-05-14T02:23:37.779Z,3.90
2023-05-14T02:26:09.587Z,3.80
2023-05-14T02:28:36.389Z,3.90
2023-05-14T02:31:03.078Z,4.03
2023-05-14T02:33:30.102Z,4.20
2023-05-14T02:35:56.727Z,4.10
2023-05-14T02:38:23.460Z,4.45
2023-05-14T02:40:50.228Z,4.55
2023-05-14T02:43:16.825Z,4.22
2023-05-14T02:45:43.604Z,3.95
2023-05-14T02:48:10.639Z,4.32
2023-05-14T02:50:37.262Z,4.72
2023-05-14T02:53:04.154Z,4.30
2023-05-14T02:55:31.145Z,4.72
2023-05-14T02:57:57.788Z,4.82
2023-05-14T03:00:24.606Z,4.80
2023-05-14T03:02:51.886Z,4.18
2023-05-14T03:05:19.092Z,4.53
2023-05-14T03:07:45.806Z,4.05
2023-05-14T03:10:12.583Z,4.18
2023-05-14T03:12:39.194Z,4.50
2023-05-14T03:15:06.259Z,4.95
2023-05-14T03:17:33.219Z,4.90
2023-05-14T03:19:59.913Z,4.95
2023-05-14T03:22:26.774Z,4.35
2023-05-14T03:24:53.759Z,3.97
2023-05-14T03:27:20.858Z,4.13
2023-05-14T03:29:47.415Z,4.47
2023-05-14T03:32:14.657Z,4.72
2023-05-14T03:34:41.600Z,4.55
2023-05-14T03:37:08.208Z,4.45
2023-05-14T03:39:35.134Z,4.63
2023-05-14T03:42:01.967Z,4.55
2023-05-14T03:44:28.653Z,4.20
2023-05-14T03:46:55.914Z,4.30
2023-05-14T03:49:22.533Z,4.22
2023-05-14T03:51:49.240Z,4.43
2023-05-14T03:54:15.995Z,3.80
2023-05-14T03:56:42.666Z,4.47
2023-05-14T03:59:09.262Z,4.47
2023-05-14T04:01:36.169Z,4.07
2023-05-14T04:04:03.080Z,5.00
2023-05-14T04:06:29.794Z,4.55
2023-05-14T04:08:56.591Z,4.90
2023-05-14T04:11:23.281Z,5.78
2023-05-14T04:13:49.941Z,4.78
2023-05-14T04:16:16.746Z,4.70
2023-05-14T04:18:43.560Z,4.88
2023-05-14T04:21:10.243Z,4.90
2023-05-14T04:23:36.894Z,4.72
2023-05-14T04:26:03.836Z,5.15
2023-05-14T04:28:30.541Z,4.97
2023-05-14T04:30:57.214Z,4.88
2023-05-14T04:33:23.821Z,4.78
2023-05-14T04:35:50.417Z,4.72
2023-05-14T04:38:17.148Z,5.30
2023-05-14T04:40:43.828Z,5.20
2023-05-14T04:43:10.802Z,5.15
2023-05-14T04:45:37.700Z,5.55
2023-05-14T04:48:05.939Z,5.22
2023-05-14T04:50:32.731Z,6.30
2023-05-14T04:52:59.334Z,5.53
2023-05-14T04:55:26.008Z,5.88
2023-05-14T04:57:52.967Z,4.95
2023-05-14T05:00:22.144Z,4.43
2023-05-14T05:02:49.184Z,5.15
2023-05-14T05:05:15.886Z,5.30
2023-05-14T05:07:42.878Z,4.43
2023-05-14T05:10:09.731Z,4.78
2023-05-14T05:12:36.337Z,4.60
2023-05-14T05:15:02.956Z,4.57
2023-05-14T05:17:30.031Z,4.53
2023-05-14T05:19:57.000Z,4.50
2023-05-14T05:22:24.272Z,4.75
2023-05-14T05:24:50.903Z,4.30
2023-05-14T05:27:22.179Z,3.58
2023-05-14T05:29:49.232Z,3.42
2023-05-14T05:32:16.103Z,3.58
2023-05-14T05:34:42.791Z,3.80
2023-05-14T05:37:12.771Z,3.42
2023-05-14T05:39:39.859Z,4.22
2023-05-14T05:42:06.952Z,3.97
2023-05-14T05:44:33.663Z,3.90
2023-05-14T05:47:00.321Z,3.80
2023-05-14T05:49:26.948Z,4.00
2023-05-14T05:51:53.608Z,4.22
2023-05-14T05:54:20.254Z,4.20
2023-05-14T05:56:46.832Z,3.95
2023-05-14T05:59:13.424Z,3.35
2023-05-14T06:01:41.363Z,3.60
2023-05-14T06:04:11.786Z,3.55
2023-05-14T06:06:38.382Z,3.53
2023-05-14T06:09:06.882Z,3.15
2023-05-14T06:11:33.700Z,3.28
2023-05-14T06:14:00.647Z,3.30
2023-05-14T06:16:27.607Z,3.15
2023-05-14T06:18:55.513Z,3.05
2023-05-14T06:21:22.580Z,3.00
2023-05-14T06:23:49.206Z,2.88
2023-05-14T06:26:15.944Z,2.67
2023-05-14T06:28:42.862Z,2.50
2023-05-14T06:31:09.664Z,2.55
2023-05-14T06:33:36.390Z,2.65
2023-05-14T06:36:07.422Z,2.50
2023-05-14T06:38:34.164Z,2.25
2023-05-14T06:41:00.818Z,2.30
2023-05-14T06:43:28.141Z,2.08
2023-05-14T06:45:54.813Z,1.80
2023-05-14T06:48:21.581Z,1.80
2023-05-14T06:50:49.434Z,2.00
2023-05-14T06:53:16.270Z,1.80
2023-05-14T06:55:43.028Z,1.95
2023-05-14T06:58:09.874Z,1.67
2023-05-14T07:00:36.509Z,1.60
2023-05-14T07:03:03.211Z,1.55
2023-05-14T07:05:30.218Z,1.80
2023-05-14T07:07:56.862Z,1.90
2023-05-14T07:10:24.116Z,1.85
2023-05-14T07:12:51.099Z,1.80
2023-05-14T07:15:17.849Z,1.65
2023-05-14T07:17:44.718Z,1.88
2023-05-14T07:20:11.987Z,1.50
2023-05-14T07:22:38.685Z,1.58
2023-05-14T07:25:06.481Z,1.80
2023-05-14T07:27:33.133Z,1.63
2023-05-14T07:29:59.711Z,1.65
2023-05-14T07:32:26.410Z,2.58
2023-05-14T07:34:53.170Z,1.70
2023-05-14T07:37:20.314Z,1.70
2023-05-14T07:39:47.680Z,1.50
2023-05-14T07:42:22.064Z,1.60
2023-05-14T07:47:25.394Z,1.50
2023-05-14T07:49:56.368Z,1.60
2023-05-14T07:52:23.733Z,1.60
2023-05-14T07:54:53.151Z,1.40
2023-05-14T07:57:20.410Z,1.60
2023-05-14T07:59:48.459Z,1.35
2023-05-14T08:02:16.962Z,1.60
2023-05-14T08:04:43.988Z,1.85
2023-05-14T08:07:11.662Z,1.50
2023-05-14T08:09:38.338Z,1.33
2023-05-14T08:12:05.598Z,1.85
2023-05-14T08:14:32.622Z,1.73
2023-05-14T08:16:59.485Z,2.03
2023-05-14T08:19:27.423Z,1.40
2023-05-14T08:21:54.178Z,1.70
2023-05-14T08:24:21.038Z,1.58
2023-05-14T08:26:47.794Z,1.60
2023-05-14T08:29:16.295Z,1.50
2023-05-14T08:31:43.540Z,1.38
2023-05-14T08:34:10.122Z,1.20
2023-05-14T08:36:36.792Z,1.70
2023-05-14T08:39:03.639Z,1.58
2023-05-14T08:41:30.355Z,1.40
2023-05-14T08:44:25.980Z,1.60
2023-05-14T08:46:53.898Z,1.40
2023-05-14T08:49:32.439Z,1.42
2023-05-14T08:52:00.164Z,1.65
2023-05-14T08:54:28.608Z,1.70
2023-05-14T08:56:55.681Z,1.20
2023-05-14T08:59:22.294Z,1.30
2023-05-14T09:01:52.862Z,1.55
2023-05-14T09:04:24.677Z,1.50
2023-05-14T09:06:53.614Z,2.08
2023-05-14T09:09:23.488Z,1.50
2023-05-14T09:11:52.367Z,1.42
2023-05-14T09:14:20.065Z,1.48
2023-05-14T09:16:48.474Z,1.70
2023-05-14T09:19:19.113Z,1.15
2023-05-14T09:21:47.579Z,1.50
2023-05-14T09:24:22.108Z,1.30
2023-05-14T09:26:54.141Z,1.52
2023-05-14T09:29:20.874Z,1.27
2023-05-14T09:31:51.930Z,1.48
2023-05-14T09:34:26.226Z,1.30
2023-05-14T09:37:06.820Z,1.30
2023-05-14T09:39:36.344Z,1.70
2023-05-14T09:42:03.528Z,1.40
2023-05-14T09:44:30.685Z,1.38
2023-05-14T09:46:57.751Z,1.40
2023-05-14T09:49:24.489Z,1.48
2023-05-14T09:51:51.413Z,1.45
2023-05-14T09:54:18.459Z,1.33
2023-05-14T09:56:45.388Z,1.45
2023-05-14T09:59:12.199Z,1.50
2023-05-14T10:01:41.884Z,1.42
2023-05-14T10:04:11.167Z,1.20
2023-05-14T10:06:39.229Z,1.50
2023-05-14T10:09:12.172Z,1.48
2023-05-14T10:11:43.893Z,1.42
2023-05-14T10:14:49.830Z,1.38
2023-05-14T10:17:18.588Z,1.40
2023-05-14T10:19:54.078Z,1.10
2023-05-14T10:22:24.499Z,1.60
2023-05-14T10:24:52.788Z,1.40
2023-05-14T10:27:23.239Z,1.20
2023-05-14T10:29:55.479Z,1.15
2023-05-14T10:32:25.157Z,1.30
2023-05-14T10:34:53.504Z,1.20
2023-05-14T10:37:26.737Z,1.20
2023-05-14T10:39:57.772Z,1.53
2023-05-14T10:42:27.615Z,1.27
2023-05-14T10:44:58.489Z,1.38
2023-05-14T10:47:29.573Z,1.23
2023-05-14T10:49:59.016Z,1.27
2023-05-14T10:52:26.711Z,1.38
2023-05-14T10:54:56.091Z,1.50
2023-05-14T10:57:27.714Z,1.40
2023-05-14T10:59:56.510Z,1.27
2023-05-14T11:02:27.644Z,1.60
2023-05-14T11:05:09.294Z,1.55
2023-05-14T11:07:38.672Z,1.50
2023-05-14T11:10:11.614Z,1.20
2023-05-14T11:12:43.389Z,1.23
2023-05-14T11:15:12.216Z,1.20
2023-05-14T11:17:41.090Z,1.40
2023-05-14T11:20:08.894Z,1.45
2023-05-14T11:22:36.855Z,1.50
2023-05-14T11:25:04.691Z,1.40
2023-05-14T11:27:34.600Z,1.52
2023-05-14T11:30:01.859Z,1.30
2023-05-14T11:32:28.676Z,1.77
2023-05-14T11:34:56.070Z,1.33
2023-05-14T11:37:22.915Z,1.67
2023-05-14T11:39:52.314Z,1.70
2023-05-14T11:42:19.811Z,1.63
2023-05-14T11:44:52.013Z,1.58
2023-05-14T11:47:20.670Z,1.60
2023-05-14T11:49:48.085Z,1.60
2023-05-14T11:52:16.318Z,1.60
2023-05-14T11:54:44.490Z,1.30
2023-05-14T11:57:13.687Z,1.40
2023-05-14T11:59:41.111Z,1.90
2023-05-14T12:02:16.520Z,1.40
2023-05-14T12:04:44.545Z,1.70
2023-05-14T12:07:17.246Z,1.50
2023-05-14T12:09:49.875Z,1.42
2023-05-14T12:12:21.613Z,1.58
2023-05-14T12:14:50.231Z,1.50
2023-05-14T12:17:19.389Z,1.50
2023-05-14T12:19:48.558Z,1.70
2023-05-14T12:22:17.744Z,1.65
2023-05-14T12:24:53.655Z,1.75
2023-05-14T12:27:24.272Z,1.65
2023-05-14T12:30:16.773Z,1.70
2023-05-14T12:32:48.928Z,1.48
2023-05-14T12:35:16.150Z,1.63
2023-05-14T12:37:43.061Z,1.75
2023-05-14T12:40:10.310Z,1.60
2023-05-14T12:42:37.568Z,1.40
2023-05-14T12:45:07.275Z,1.85
2023-05-14T12:47:34.327Z,1.83
2023-05-14T12:50:01.461Z,1.83
2023-05-14T12:52:37.894Z,1.95
2023-05-14T12:55:09.283Z,1.77
2023-05-14T12:57:37.162Z,2.10
2023-05-14T13:00:07.150Z,1.88
2023-05-14T13:02:42.124Z,1.50
2023-05-14T13:05:10.741Z,1.77
2023-05-14T13:07:37.569Z,1.75
2023-05-14T13:10:05.700Z,1.60
2023-05-14T13:12:32.526Z,1.90
2023-05-14T13:14:59.395Z,1.58
2023-05-14T13:17:26.118Z,1.65
2023-05-14T13:19:52.780Z,1.67
2023-05-14T13:22:19.449Z,1.80
2023-05-14T13:24:46.420Z,1.73
2023-05-14T13:27:13.103Z,1.70
2023-05-14T13:29:40.078Z,1.70
2023-05-14T13:32:07.132Z,1.80
2023-05-14T13:34:34.073Z,1.77
2023-05-14T13:37:01.294Z,1.60
2023-05-14T13:39:27.980Z,1.88
2023-05-14T13:41:56.807Z,1.67
2023-05-14T13:44:24.050Z,1.95
2023-05-14T13:46:50.829Z,1.60
2023-05-14T13:49:17.640Z,1.63
2023-05-14T13:51:44.517Z,1.98
2023-05-14T13:54:11.177Z,2.35
2023-05-14T13:56:37.821Z,1.60
2023-05-14T13:59:04.928Z,1.45
2023-05-14T14:01:31.868Z,1.92
2023-05-14T14:03:58.952Z,2.03
2023-05-14T14:06:27.821Z,1.90
2023-05-14T14:08:54.462Z,1.90
2023-05-14T14:11:21.152Z,2.20
2023-05-14T14:13:48.039Z,2.50
2023-05-14T14:16:16.029Z,2.05
2023-05-14T14:18:43.398Z,2.25
2023-05-14T14:21:10.621Z,1.73
2023-05-14T14:23:37.253Z,1.63
2023-05-14T14:26:04.006Z,1.70
2023-05-14T14:28:31.360Z,1.88
2023-05-14T14:30:58.335Z,1.95
2023-05-14T14:33:25.087Z,1.70
2023-05-14T14:35:51.880Z,2.00
2023-05-14T14:38:18.524Z,1.80
2023-05-14T14:40:46.311Z,1.98
2023-05-14T14:43:13.076Z,1.85
2023-05-14T14:45:39.780Z,1.52
2023-05-14T14:48:26.423Z,1.50
2023-05-14T14:50:53.563Z,1.70
2023-05-14T14:53:21.964Z,1.40
2023-05-14T14:55:49.429Z,1.50
2023-05-14T14:58:16.607Z,1.42
2023-05-14T15:00:43.769Z,1.67
2023-05-14T15:03:10.660Z,1.70
2023-05-14T15:05:37.989Z,1.80
2023-05-14T15:08:05.064Z,1.50
2023-05-14T15:10:32.004Z,1.70
2023-05-14T15:12:59.761Z,1.70
2023-05-14T15:15:26.684Z,1.80
2023-05-14T15:17:53.487Z,1.77
2023-05-14T15:20:20.197Z,1.60
2023-05-14T15:22:47.012Z,1.65
2023-05-14T15:25:13.786Z,1.60
2023-05-14T15:27:40.491Z,2.00
2023-05-14T15:30:08.183Z,1.73
2023-05-14T15:32:34.971Z,1.50
2023-05-14T15:35:01.694Z,2.00
2023-05-14T15:37:28.343Z,2.00
2023-05-14T15:39:54.984Z,1.90
2023-05-14T15:42:21.619Z,2.35
2023-05-14T15:44:48.301Z,2.00
2023-05-14T15:47:14.933Z,1.80
2023-05-14T15:49:41.646Z,1.98
2023-05-14T15:52:08.364Z,2.20
2023-05-14T15:54:38.745Z,1.98
2023-05-14T15:57:05.454Z,1.63
2023-05-14T15:59:32.109Z,2.20
2023-05-14T16:01:58.762Z,2.47
2023-05-14T16:04:25.392Z,1.92
2023-05-14T16:06:52.014Z,1.77
2023-05-14T16:09:18.734Z,1.92
2023-05-14T16:11:45.356Z,1.98
2023-05-14T16:14:12.002Z,2.10
2023-05-14T16:16:38.715Z,1.90
2023-05-14T16:19:05.821Z,2.38
2023-05-14T16:21:34.263Z,1.67
2023-05-14T16:24:01.332Z,2.05
2023-05-14T16:26:27.949Z,1.90
2023-05-14T16:28:54.561Z,2.00
2023-05-14T16:31:21.260Z,1.95
2023-05-14T16:33:48.038Z,1.98
2023-05-14T16:36:14.790Z,1.70
2023-05-14T16:38:48.355Z,1.88
2023-05-14T16:41:28.605Z,2.00
2023-05-14T16:43:55.558Z,1.80
2023-05-14T16:46:22.195Z,2.00
2023-05-14T16:48:50.643Z,1.75
2023-05-14T16:51:17.423Z,1.92
2023-05-14T16:53:44.033Z,1.98
2023-05-14T16:56:11.094Z,2.00
2023-05-14T16:58:37.826Z,2.10
2023-05-14T17:01:05.290Z,2.17
2023-05-14T17:03:32.948Z,2.35
2023-05-14T17:05:59.952Z,2.55
2023-05-14T17:08:31.762Z,1.90
2023-05-14T17:10:58.449Z,2.22
2023-05-14T17:13:25.184Z,2.17
2023-05-14T17:15:51.876Z,1.85
2023-05-14T17:18:18.541Z,2.00
2023-05-14T17:20:45.241Z,2.22
2023-05-14T17:23:11.862Z,2.17
2023-05-14T17:25:38.786Z,2.40
2023-05-14T17:28:05.694Z,1.95
2023-05-14T17:30:32.671Z,2.10
2023-05-14T17:33:00.041Z,2.03
2023-05-14T17:35:27.178Z,2.30
2023-05-14T17:37:54.034Z,2.70
2023-05-14T17:40:20.999Z,2.70
2023-05-14T17:42:47.612Z,2.80
2023-05-14T17:45:15.489Z,2.50
2023-05-14T17:47:42.484Z,2.42
2023-05-14T17:50:09.531Z,2.47
2023-05-14T17:52:36.650Z,2.30
2023-05-14T17:55:03.856Z,2.50
2023-05-14T17:57:30.761Z,1.83
2023-05-14T17:59:57.419Z,1.88
2023-05-14T18:02:24.260Z,2.00
2023-05-14T18:04:51.067Z,2.10
2023-05-14T18:07:19.244Z,1.90
2023-05-14T18:09:45.919Z,2.17
2023-05-14T18:12:12.589Z,2.10
2023-05-14T18:14:39.309Z,2.13
2023-05-14T18:17:06.542Z,1.90
2023-05-14T18:19:33.469Z,2.00
2023-05-14T18:22:00.168Z,1.83
2023-05-14T18:24:26.763Z,1.98
2023-05-14T18:26:54.403Z,2.30
2023-05-14T18:29:21.161Z,1.70
2023-05-14T18:31:47.806Z,2.15
2023-05-14T18:34:14.497Z,2.10
2023-05-14T18:36:41.267Z,2.55
2023-05-14T18:39:11.155Z,2.60
2023-05-14T18:41:37.728Z,2.80
2023-05-14T18:44:04.380Z,2.53
2023-05-14T18:46:31.075Z,2.17
2023-05-14T18:48:57.769Z,3.05
2023-05-14T18:51:24.440Z,2.83
2023-05-14T18:53:51.239Z,2.33
2023-05-14T18:56:18.023Z,2.38
2023-05-14T18:58:44.665Z,2.30
2023-05-14T19:01:11.279Z,2.53
2023-05-14T19:03:38.059Z,2.30
2023-05-14T19:06:04.664Z,2.53
2023-05-14T19:08:31.244Z,2.45
2023-05-14T19:10:57.814Z,2.30
2023-05-14T19:13:24.579Z,2.30
2023-05-14T19:15:51.257Z,2.35
2023-05-14T19:18:17.972Z,2.60
2023-05-14T19:20:46.643Z,2.20
2023-05-14T19:23:13.758Z,2.60
2023-05-14T19:25:40.660Z,2.30
2023-05-14T19:28:07.333Z,2.45
2023-05-14T19:30:33.990Z,2.40
2023-05-14T19:33:00.799Z,2.25
2023-05-14T19:35:27.476Z,2.65
2023-05-14T19:37:54.320Z,2.35
2023-05-14T19:40:20.972Z,2.42
2023-05-14T19:42:47.559Z,2.38
2023-05-14T19:45:14.192Z,2.22
2023-05-14T19:47:41.756Z,2.05
2023-05-14T19:50:09.113Z,2.33
2023-05-14T19:52:35.783Z,2.50
2023-05-14T19:55:02.349Z,2.20
2023-05-14T19:57:29.338Z,2.30
2023-05-14T19:59:55.961Z,2.20
2023-05-14T20:02:22.804Z,2.10
2023-05-14T20:04:49.533Z,2.40
2023-05-14T20:07:16.380Z,2.22
2023-05-14T20:09:43.045Z,2.00
2023-05-14T20:12:09.768Z,2.28
2023-05-14T20:14:36.575Z,2.60
2023-05-14T20:17:03.409Z,2.10
2023-05-14T20:19:30.698Z,2.00
2023-05-14T20:21:57.615Z,2.45
2023-05-14T20:24:24.215Z,2.40
2023-05-14T20:26:50.914Z,2.30
2023-05-14T20:29:17.524Z,2.40
2023-05-14T20:31:44.125Z,2.42
2023-05-14T20:34:10.732Z,2.33
2023-05-14T20:36:37.496Z,2.35
2023-05-14T20:39:09.652Z,2.47
2023-05-14T20:41:36.249Z,2.55
2023-05-14T20:44:03.102Z,2.45
2023-05-14T20:46:29.794Z,2.60
2023-05-14T20:48:57.302Z,2.42
2023-05-14T20:51:24.160Z,2.25
2023-05-14T20:53:50.832Z,2.30
2023-05-14T20:56:17.556Z,2.50
2023-05-14T20:58:44.193Z,2.45
2023-05-14T21:01:10.819Z,2.35
2023-05-14T21:03:37.645Z,2.40
2023-05-14T21:06:04.928Z,2.60
2023-05-14T21:08:33.021Z,2.30
2023-05-14T21:10:59.657Z,2.70
2023-05-14T21:13:26.355Z,2.22
2023-05-14T21:15:53.064Z,2.72
2023-05-14T21:18:19.702Z,2.75
2023-05-14T21:20:46.562Z,2.40
2023-05-14T21:23:13.752Z,2.70
2023-05-14T21:25:40.433Z,2.50
2023-05-14T21:28:07.729Z,2.38
2023-05-14T21:30:34.293Z,2.50
2023-05-14T21:33:01.027Z,2.60
2023-05-14T21:35:27.918Z,2.50
2023-05-14T21:37:54.579Z,2.60
2023-05-14T21:40:21.545Z,2.40
2023-05-14T21:42:48.212Z,2.45
2023-05-14T21:45:14.908Z,2.40
2023-05-14T21:47:41.700Z,2.28
2023-05-14T21:50:09.047Z,2.67
2023-05-14T21:52:36.551Z,2.45
2023-05-14T21:55:03.267Z,2.53
2023-05-14T21:57:33.172Z,2.20
2023-05-14T22:00:01.145Z,2.10
2023-05-14T22:02:27.878Z,2.50
2023-05-14T22:04:54.674Z,2.78
2023-05-14T22:07:21.309Z,2.25
2023-05-14T22:09:48.202Z,2.50
2023-05-14T22:12:14.858Z,2.25
2023-05-14T22:14:41.915Z,2.80
2023-05-14T22:17:08.499Z,2.55
2023-05-14T22:19:35.414Z,2.30
2023-05-14T22:22:02.084Z,2.50
2023-05-14T22:24:28.671Z,2.25
2023-05-14T22:26:55.649Z,2.60
2023-05-14T22:29:22.331Z,2.38
2023-05-14T22:31:49.088Z,2.25
2023-05-14T22:34:16.236Z,2.50
2023-05-14T22:36:42.856Z,2.38
2023-05-14T22:39:11.269Z,2.28
2023-05-14T22:41:39.577Z,2.40
2023-05-14T22:44:09.403Z,2.38
2023-05-14T22:46:36.124Z,2.25
2023-05-14T22:49:03.214Z,2.55
2023-05-14T22:51:29.850Z,2.38
2023-05-14T22:53:56.468Z,2.20
2023-05-14T22:56:23.258Z,1.98
2023-05-14T22:58:49.854Z,2.47
2023-05-14T23:01:16.615Z,2.67
2023-05-14T23:03:43.390Z,2.33
2023-05-14T23:06:10.696Z,2.05
2023-05-14T23:08:37.318Z,2.60
2023-05-14T23:11:04.313Z,2.40
2023-05-14T23:13:31.072Z,2.22
2023-05-14T23:15:57.757Z,2.90
2023-05-14T23:18:24.540Z,2.30
2023-05-14T23:20:51.154Z,2.00
2023-05-14T23:23:17.762Z,2.80
2023-05-14T23:25:44.587Z,2.40
2023-05-14T23:28:11.397Z,2.25
2023-05-14T23:30:38.045Z,2.30
2023-05-14T23:33:04.781Z,2.22
2023-05-14T23:35:31.557Z,2.30
2023-05-14T23:37:58.331Z,2.40
2023-05-14T23:40:24.922Z,2.25
2023-05-14T23:42:52.057Z,2.63
2023-05-14T23:45:18.744Z,2.20
2023-05-14T23:47:45.654Z,2.28
2023-05-14T23:50:12.344Z,2.20
2023-05-14T23:52:39.050Z,2.50
2023-05-14T23:55:06.432Z,2.28
2023-05-14T23:57:33.089Z,2.67
2023-05-14T23:59:59.689Z,2.22
